Terminal Aerodrome Forecast
Issued by NWS Northern Indiana

Home | Current Version | Previous Version | Graphics & Text | Print | Product List | Glossary On
Versions: 1 2 3 4 5 6 7 8 9 10 11 12 13 14 15 16 17
000
FTUS43 KIWX 301828 CCA
TAFFWA
TAF COR
KFWA 301828Z 3018/3118 23008KT P6SM SCT035 BKN140
     FM302300 23002KT P6SM SCT040
     FM310900 00000KT 5SM BR BKN010
      TEMPO 3110/3112 2SM BR BKN006=

USA.gov is the U.S. government's official web portal to all federal, state and local government web resources and services.